Hantsport, Canada
Current Conditions -  °F | °C
As of 8:00 PM on Wednesday 26 Nov 2014 (Local Time) from CYHZ Reporting Station
Light Rain Light Rain  
Wind Chill: 26°   Ceiling: 3400
Heat Index: 34°   Visibility: 4mi
Dew Point: 34°   Wind: 9mph
Humidity: 100%   Direction: 30°NNE
Pressure: 30.09"   Gusts: NA
Location:  45.07°N, 64.18°W
Report Text: CYHZ 270000Z 03008KT 4SM -RA BR FEW005 OVC034 01/01 A3009 RMK SF1NS7 PRESRR SLP193
Loading
Personal Weather Stations






























Interactive Weather Map New forecast layout! Learn more

10-Day Weather Forecast

Advertisements
Track Severe Weather on mobile